Terminal Aerodrome Forecast
Issued by NWS

Home | Current Version | Previous Version | Graphics & Text | Print | Product List | Glossary On
Versions: 1 2 3 4 5 6 7 8 9 10 11 12 13 14 15 16 17 18 19
000
FTUS43 KMPX 181734
TAFRWF
TAF
KRWF 181734Z 1818/1918 21010KT P6SM SCT250
     FM190900 18009KT 3SM BR OVC005
     FM191200 18009KT 3/4SM BR VV002
     FM191500 17010KT 2SM BR VV005=

USA.gov is the U.S. government's official web portal to all federal, state and local government web resources and services.